Time;durP1;ratioP1;P1;durP2;ratioP2;P2;SDS_P1;SDS_P2;PMS_P1;PMS_P2;Temp;Humidity;BMP_temperature;BMP_pressure;BME280_temperature;BME280_humidity;BME280_pressure;Samples;Min_cycle;Max_cycle;Signal;HPM_P1;HPM_P2
2022/05/10 00:00:25;;;;;;;16.92;8.82;;;12.70;99.90;;;;;;4980952;28;20124;-87
2022/05/10 00:02:55;;;;;;;16.05;8.65;;;12.70;99.90;;;;;;5014132;28;20052;-86
2022/05/10 00:05:27;;;;;;;18.02;8.75;;;12.70;99.90;;;;;;5015132;28;20465;-86
2022/05/10 00:07:54;;;;;;;15.35;8.75;;;12.70;99.90;;;;;;4997540;28;20041;-87
2022/05/10 00:10:20;;;;;;;16.67;8.93;;;12.70;99.90;;;;;;4997127;28;20053;-87
2022/05/10 00:12:46;;;;;;;17.73;9.50;;;12.60;99.90;;;;;;4997247;28;20042;-86
2022/05/10 00:15:12;;;;;;;16.17;9.10;;;12.60;99.90;;;;;;4996769;28;20176;-86
2022/05/10 00:17:40;;;;;;;16.83;9.20;;;12.70;99.90;;;;;;5014662;28;20085;-87
2022/05/10 00:20:12;;;;;;;17.05;9.07;;;13.00;99.90;;;;;;4997043;28;20081;-87
2022/05/10 00:22:39;;;;;;;17.67;9.55;;;12.60;99.90;;;;;;4997078;28;20042;-87
2022/05/10 00:25:07;;;;;;;16.17;9.05;;;12.60;99.90;;;;;;4980909;28;20053;-87
2022/05/10 00:27:32;;;;;;;16.27;9.20;;;12.50;99.90;;;;;;4997075;28;20485;-87
2022/05/10 00:29:58;;;;;;;15.52;9.45;;;12.50;99.90;;;;;;4996601;28;20044;-86
2022/05/10 00:32:31;;;;;;;15.88;9.35;;;12.40;99.90;;;;;;4997005;28;20042;-87
2022/05/10 00:34:56;;;;;;;16.58;9.65;;;12.50;99.90;;;;;;4996731;28;20054;-87
2022/05/10 00:37:23;;;;;;;21.25;10.05;;;12.40;99.90;;;;;;4996871;28;20045;-87
2022/05/10 00:39:48;;;;;;;18.08;10.05;;;12.50;99.90;;;;;;4980438;28;20049;-86
2022/05/10 00:42:30;;;;;;;15.75;9.13;;;12.40;99.90;;;;;;5014243;28;20128;-87
2022/05/10 00:44:59;;;;;;;20.40;10.20;;;12.40;99.90;;;;;;4996436;28;20136;-86
2022/05/10 00:47:40;;;;;;;18.40;9.80;;;12.40;99.90;;;;;;4996555;28;20050;-86
2022/05/10 00:50:31;;;;;;;19.05;9.10;;;12.40;99.90;;;;;;4996339;28;20045;-87
2022/05/10 00:53:08;;;;;;;17.15;9.73;;;12.30;99.90;;;;;;4996806;28;20402;-87
2022/05/10 00:55:49;;;;;;;16.13;9.38;;;12.30;99.90;;;;;;4996530;28;20145;-87
2022/05/10 00:58:29;;;;;;;20.48;10.70;;;12.30;99.90;;;;;;5025073;28;20052;-86
2022/05/10 01:00:56;;;;;;;20.17;10.82;;;12.30;99.90;;;;;;5024021;28;20110;-87
2022/05/10 01:03:30;;;;;;;15.25;8.93;;;12.30;99.90;;;;;;4997395;28;20038;-86
2022/05/10 01:06:47;;;;;;;17.58;9.32;;;12.30;99.90;;;;;;4996475;28;20141;-87
2022/05/10 01:09:30;;;;;;;18.15;9.93;;;12.30;99.90;;;;;;4918616;29;20404;-86
2022/05/10 01:12:07;;;;;;;17.38;9.77;;;12.30;99.90;;;;;;4903140;29;20495;-86
2022/05/10 01:14:49;;;;;;;17.23;9.80;;;12.20;99.90;;;;;;4918390;29;20043;-87
2022/05/10 01:17:14;;;;;;;16.60;10.02;;;12.20;99.90;;;;;;4918520;29;20056;-87
2022/05/10 01:19:43;;;;;;;19.70;10.38;;;12.20;99.90;;;;;;4918464;29;20055;-86
2022/05/10 01:22:43;;;;;;;16.42;9.20;;;12.20;99.90;;;;;;4918505;29;20091;-87
2022/05/10 01:25:59;;;;;;;17.05;9.77;;;12.10;99.90;;;;;;4902993;29;20086;-87
2022/05/10 01:28:39;;;;;;;18.17;10.57;;;12.20;99.90;;;;;;4843993;29;20426;-87
2022/05/10 01:31:11;;;;;;;15.80;9.57;;;12.10;99.90;;;;;;4859128;29;20094;-86
2022/05/10 01:33:45;;;;;;;17.33;9.65;;;12.10;99.90;;;;;;4828390;29;20052;-87
2022/05/10 01:36:39;;;;;;;17.00;10.00;;;12.10;99.90;;;;;;4859384;29;20090;-87
2022/05/10 01:39:23;;;;;;;17.40;10.13;;;12.20;99.90;;;;;;4843780;29;20085;-87
2022/05/10 01:42:03;;;;;;;17.60;9.48;;;12.10;99.90;;;;;;4859147;29;20132;-86
2022/05/10 01:44:49;;;;;;;19.38;10.63;;;12.10;99.90;;;;;;4870521;29;20480;-87
2022/05/10 01:47:41;;;;;;;19.05;9.77;;;12.10;99.90;;;;;;4934108;29;20047;-86
2022/05/10 01:50:47;;;;;;;17.60;9.77;;;12.10;99.90;;;;;;4918001;28;20066;-87
2022/05/10 01:53:35;;;;;;;14.75;8.45;;;12.10;99.90;;;;;;4880428;29;20136;-87
2022/05/10 01:56:13;;;;;;;21.33;10.00;;;12.00;99.90;;;;;;4917703;29;20087;-87
2022/05/10 01:58:41;;;;;;;17.17;9.32;;;12.00;99.90;;;;;;4918286;29;20436;-87
2022/05/10 02:01:10;;;;;;;15.82;9.55;;;12.00;99.90;;;;;;4902562;29;20056;-87
2022/05/10 02:03:42;;;;;;;19.13;9.20;;;12.00;99.90;;;;;;4953878;28;20050;-87
2022/05/10 02:06:30;;;;;;;18.30;9.50;;;12.10;99.90;;;;;;4995942;28;20076;-87
2022/05/10 02:09:16;;;;;;;16.13;8.88;;;12.10;99.90;;;;;;4995706;28;20081;-86
2022/05/10 02:11:48;;;;;;;16.13;9.25;;;12.20;99.90;;;;;;4998846;28;20065;-87
2022/05/10 02:14:16;;;;;;;14.20;9.27;;;12.20;99.90;;;;;;4999427;28;20072;-87
2022/05/10 02:16:47;;;;;;;16.02;9.27;;;12.20;99.90;;;;;;4983290;28;20089;-87
2022/05/10 02:19:27;;;;;;;18.80;9.50;;;12.30;99.90;;;;;;5009670;28;20033;-87
2022/05/10 02:22:01;;;;;;;15.98;9.50;;;12.30;99.90;;;;;;5022491;28;20046;-86
2022/05/10 02:24:35;;;;;;;15.05;8.70;;;12.30;99.90;;;;;;4983195;28;20046;-87
2022/05/10 02:27:06;;;;;;;16.25;9.10;;;12.30;99.90;;;;;;4999228;28;20048;-87
2022/05/10 02:29:46;;;;;;;17.40;9.20;;;12.40;99.90;;;;;;4998854;28;20058;-87
2022/05/10 02:35:08;;;;;;;12.43;8.35;;;12.30;99.90;;;;;;4998758;28;20050;-87
2022/05/10 02:37:33;;;;;;;15.18;9.05;;;12.40;99.90;;;;;;4999193;28;20121;-87
2022/05/10 02:40:00;;;;;;;16.77;9.43;;;12.30;99.90;;;;;;4982791;28;20637;-87
2022/05/10 02:42:27;;;;;;;16.25;9.18;;;12.30;99.90;;;;;;4999120;28;20060;-87
2022/05/10 02:44:55;;;;;;;17.05;8.40;;;12.40;99.90;;;;;;4998514;28;20046;-87
2022/05/10 02:47:32;;;;;;;17.70;8.85;;;12.60;99.90;;;;;;4998631;28;20501;-87
2022/05/10 02:49:58;;;;;;;17.30;9.07;;;12.40;99.90;;;;;;4998860;28;20077;-87
2022/05/10 02:52:23;;;;;;;13.10;8.23;;;12.40;99.90;;;;;;4983109;28;20405;-87
2022/05/10 02:55:17;;;;;;;18.73;8.48;;;12.40;99.90;;;;;;4998658;28;20052;-87
2022/05/10 02:57:48;;;;;;;16.00;9.25;;;12.40;99.90;;;;;;4936543;29;20131;-87
2022/05/10 03:00:15;;;;;;;16.55;9.02;;;12.40;99.90;;;;;;4920382;29;20059;-87
2022/05/10 03:02:45;;;;;;;15.60;8.20;;;12.40;99.90;;;;;;4920838;29;20584;-87
2022/05/10 03:05:13;;;;;;;16.95;9.02;;;12.40;99.90;;;;;;4920777;29;20043;-87
2022/05/10 03:07:39;;;;;;;15.73;9.00;;;12.40;99.90;;;;;;4920583;29;20047;-87
2022/05/10 03:10:06;;;;;;;14.82;8.60;;;12.60;99.90;;;;;;4920290;29;20106;-87
2022/05/10 03:12:32;;;;;;;15.75;8.25;;;12.40;99.90;;;;;;4904609;29;20049;-87
2022/05/10 03:14:57;;;;;;;16.15;8.27;;;12.40;99.90;;;;;;4920465;29;20059;-87
2022/05/10 03:17:23;;;;;;;14.95;8.45;;;12.40;99.90;;;;;;4920313;29;20051;-87
2022/05/10 03:19:49;;;;;;;13.75;8.80;;;12.60;99.90;;;;;;4904660;29;20075;-87
2022/05/10 03:22:14;;;;;;;16.55;8.10;;;12.40;99.90;;;;;;4919809;29;20458;-87
2022/05/10 03:24:40;;;;;;;14.82;8.48;;;12.40;99.90;;;;;;4920146;29;20055;-87
2022/05/10 03:27:07;;;;;;;15.50;8.90;;;12.40;99.90;;;;;;4935929;29;20048;-87
2022/05/10 03:29:34;;;;;;;15.02;8.75;;;12.50;99.90;;;;;;4919711;29;20054;-87
2022/05/10 03:32:00;;;;;;;14.07;8.25;;;12.40;99.90;;;;;;4904594;29;20051;-87
2022/05/10 03:37:09;;;;;;;16.80;8.30;;;12.40;99.90;;;;;;4994581;28;20042;-87
2022/05/10 03:39:35;;;;;;;13.20;7.68;;;12.90;99.90;;;;;;4994571;28;20107;-87
2022/05/10 03:42:03;;;;;;;14.02;8.52;;;12.40;99.90;;;;;;4994360;28;20046;-87
2022/05/10 03:44:31;;;;;;;15.13;8.20;;;12.50;99.90;;;;;;4994269;28;20042;-87
2022/05/10 03:46:57;;;;;;;16.77;8.60;;;12.40;99.90;;;;;;4994334;28;20116;-87
2022/05/10 03:49:23;;;;;;;13.63;8.32;;;12.80;99.90;;;;;;4978303;28;20133;-87
2022/05/10 03:51:49;;;;;;;16.10;9.00;;;12.50;99.90;;;;;;4994352;28;20047;-87
2022/05/10 03:54:14;;;;;;;16.35;9.55;;;12.40;99.90;;;;;;4994217;28;20042;-87
2022/05/10 03:56:40;;;;;;;12.77;8.32;;;12.40;99.90;;;;;;4994945;28;20560;-87
2022/05/10 03:59:06;;;;;;;15.05;8.57;;;12.50;99.90;;;;;;4993735;28;20513;-87
2022/05/10 04:01:32;;;;;;;14.93;8.52;;;12.50;99.90;;;;;;4977974;28;20486;-87
2022/05/10 04:03:57;;;;;;;14.82;8.77;;;12.50;99.90;;;;;;4977862;28;20042;-87
2022/05/10 04:06:23;;;;;;;15.18;8.52;;;12.50;99.90;;;;;;4993995;28;20054;-87
2022/05/10 04:08:49;;;;;;;16.33;9.23;;;12.50;99.90;;;;;;4993939;28;20061;-87
2022/05/10 04:11:14;;;;;;;17.08;8.35;;;12.50;99.90;;;;;;4993696;28;20077;-87
2022/05/10 04:13:42;;;;;;;14.23;8.98;;;12.80;99.90;;;;;;4993741;28;20046;-87
2022/05/10 04:16:08;;;;;;;14.63;9.30;;;12.60;99.90;;;;;;4993771;28;20133;-87
2022/05/10 04:18:34;;;;;;;17.17;8.95;;;12.70;99.90;;;;;;4993702;28;20129;-87
2022/05/10 04:21:00;;;;;;;14.27;8.45;;;12.70;99.90;;;;;;4993785;28;20086;-87
2022/05/10 04:23:26;;;;;;;16.08;8.82;;;12.70;99.90;;;;;;4993734;28;20097;-87
2022/05/10 04:25:52;;;;;;;15.75;9.10;;;12.70;99.90;;;;;;4993771;28;20057;-87
2022/05/10 04:28:18;;;;;;;15.70;8.60;;;12.80;99.90;;;;;;4993529;28;20110;-87
2022/05/10 04:30:44;;;;;;;18.35;8.60;;;12.70;99.90;;;;;;4977203;28;20073;-87
2022/05/10 04:33:09;;;;;;;17.10;9.63;;;12.80;99.90;;;;;;4992779;28;20043;-87
2022/05/10 04:35:35;;;;;;;16.60;9.20;;;13.10;99.90;;;;;;5005828;28;20046;-87
2022/05/10 04:38:04;;;;;;;15.80;9.00;;;13.10;99.90;;;;;;5012741;28;20050;-87
2022/05/10 04:43:13;;;;;;;16.75;8.63;;;12.90;99.90;;;;;;4993475;28;20054;-87
2022/05/10 04:45:40;;;;;;;16.83;9.65;;;13.00;99.90;;;;;;4977415;28;20046;-87
2022/05/10 04:48:06;;;;;;;16.05;8.55;;;13.00;99.90;;;;;;4993327;28;20046;-87
2022/05/10 04:50:31;;;;;;;15.90;8.82;;;13.10;99.90;;;;;;4977016;28;20054;-87
2022/05/10 04:52:57;;;;;;;13.60;8.68;;;13.10;99.90;;;;;;4988209;28;20466;-87
2022/05/10 04:55:23;;;;;;;16.85;9.07;;;13.20;99.90;;;;;;5002195;28;20054;-87
2022/05/10 04:57:48;;;;;;;16.05;9.35;;;13.20;99.90;;;;;;4993820;28;20399;-87
2022/05/10 05:00:15;;;;;;;14.15;8.45;;;13.50;99.90;;;;;;4992934;28;20136;-87
2022/05/10 05:02:42;;;;;;;17.45;8.98;;;13.30;99.90;;;;;;4993371;28;20046;-87
2022/05/10 05:05:09;;;;;;;15.95;9.30;;;13.40;99.90;;;;;;4993195;28;20042;-87
2022/05/10 05:07:35;;;;;;;16.98;10.02;;;13.40;99.90;;;;;;4993118;28;20046;-87
2022/05/10 05:10:02;;;;;;;18.15;9.70;;;13.50;99.90;;;;;;4993001;28;20053;-87
2022/05/10 05:12:28;;;;;;;15.95;9.52;;;13.50;99.90;;;;;;4992941;28;20050;-87
2022/05/10 05:14:54;;;;;;;17.58;8.95;;;13.50;99.90;;;;;;4992826;28;20049;-87
2022/05/10 05:17:19;;;;;;;18.48;9.57;;;13.70;99.90;;;;;;4993342;28;20034;-87
2022/05/10 05:19:45;;;;;;;15.70;9.27;;;13.70;99.90;;;;;;4993001;28;20130;-87
2022/05/10 05:22:12;;;;;;;15.85;9.23;;;13.60;99.90;;;;;;4992959;28;20048;-87
2022/05/10 05:24:38;;;;;;;15.82;9.38;;;13.70;99.90;;;;;;4992826;28;20046;-87
2022/05/10 05:27:04;;;;;;;17.58;9.30;;;13.70;99.90;;;;;;4994093;28;20051;-87
2022/05/10 05:29:30;;;;;;;15.55;8.65;;;13.80;99.90;;;;;;4994015;28;20047;-87
2022/05/10 05:31:55;;;;;;;15.65;8.43;;;13.80;99.90;;;;;;4993156;28;20057;-87
2022/05/10 05:34:21;;;;;;;15.73;9.38;;;13.90;99.90;;;;;;4993224;28;20050;-87
2022/05/10 05:37:32;;;;;;;17.95;9.40;;;13.90;99.90;;;;;;4992997;28;20050;-87
2022/05/10 05:39:32;;;;;;;14.55;8.68;;;14.00;99.90;;;;;;4993309;28;20104;-87
2022/05/10 05:41:58;;;;;;;16.50;9.00;;;13.90;99.90;;;;;;4993026;28;20050;-87
2022/05/10 05:44:24;;;;;;;15.90;9.63;;;14.30;99.90;;;;;;4992969;28;20047;-87
2022/05/10 05:46:50;;;;;;;15.23;8.95;;;14.20;99.90;;;;;;4996855;28;20078;-87
2022/05/10 05:49:16;;;;;;;16.00;8.52;;;14.20;99.90;;;;;;4996541;28;20034;-87
2022/05/10 05:51:42;;;;;;;17.50;8.77;;;14.30;99.90;;;;;;4996441;28;20054;-87
2022/05/10 05:54:09;;;;;;;17.00;9.52;;;14.40;99.90;;;;;;4996223;28;20452;-87
2022/05/10 05:56:35;;;;;;;18.83;9.25;;;14.50;99.90;;;;;;4996342;28;20048;-87
2022/05/10 05:59:01;;;;;;;16.52;9.05;;;14.50;99.90;;;;;;4979896;28;20061;-87
2022/05/10 06:01:27;;;;;;;15.63;8.43;;;14.70;99.90;;;;;;4996378;28;20055;-87
2022/05/10 06:03:55;;;;;;;13.93;8.68;;;14.90;99.90;;;;;;4996333;28;20044;-87
2022/05/10 06:06:22;;;;;;;13.30;8.48;;;15.20;99.90;;;;;;4996597;28;20502;-87
2022/05/10 06:08:47;;;;;;;15.80;8.27;;;15.10;99.90;;;;;;4979894;28;20042;-87
2022/05/10 06:11:13;;;;;;;13.80;8.35;;;15.30;99.90;;;;;;4996055;28;20042;-87
2022/05/10 06:13:39;;;;;;;14.55;8.05;;;15.40;99.90;;;;;;4996175;28;20038;-88
2022/05/10 06:16:06;;;;;;;14.43;7.90;;;15.50;99.90;;;;;;4979761;28;20549;-87
2022/05/10 06:18:32;;;;;;;15.73;8.48;;;15.60;99.90;;;;;;4996051;28;20054;-87
2022/05/10 06:20:58;;;;;;;12.27;7.53;;;15.60;99.90;;;;;;4979938;28;20097;-87
2022/05/10 06:23:23;;;;;;;13.60;7.72;;;15.80;99.90;;;;;;4996004;28;20145;-87
2022/05/10 06:25:49;;;;;;;13.25;8.00;;;16.00;99.90;;;;;;4995749;28;20082;-87
2022/05/10 06:28:15;;;;;;;12.00;8.23;;;16.30;99.90;;;;;;4996909;28;20053;-87
2022/05/10 06:30:42;;;;;;;15.00;8.18;;;16.00;99.90;;;;;;4995671;28;20372;-87
2022/05/10 06:33:08;;;;;;;11.35;7.47;;;16.10;99.90;;;;;;4995720;28;20105;-87
2022/05/10 06:35:33;;;;;;;12.38;7.22;;;16.20;99.90;;;;;;4995724;28;20440;-87
2022/05/10 06:38:19;;;;;;;13.10;7.40;;;16.30;99.90;;;;;;4995674;28;20145;-87
2022/05/10 06:40:46;;;;;;;12.60;7.07;;;16.40;99.90;;;;;;4995838;28;20120;-87
2022/05/10 06:43:13;;;;;;;14.18;7.20;;;16.60;99.90;;;;;;4995511;28;20047;-87
2022/05/10 06:45:42;;;;;;;12.70;7.28;;;16.70;99.90;;;;;;4995521;28;20085;-87
2022/05/10 06:48:09;;;;;;;13.63;7.25;;;16.80;99.90;;;;;;4995514;28;20121;-87
2022/05/10 06:50:36;;;;;;;10.65;6.70;;;17.00;99.90;;;;;;4996905;28;20047;-87
2022/05/10 06:53:03;;;;;;;12.13;6.57;;;17.20;99.90;;;;;;5000556;28;20406;-87
2022/05/10 06:55:30;;;;;;;10.90;6.65;;;17.30;99.90;;;;;;4996008;28;20129;-88
2022/05/10 06:57:57;;;;;;;11.20;6.78;;;17.40;99.90;;;;;;4994455;28;20074;-88
2022/05/10 07:00:22;;;;;;;12.30;6.25;;;17.50;99.90;;;;;;4994859;28;20063;-87
2022/05/10 07:02:49;;;;;;;11.73;6.20;;;17.60;99.90;;;;;;4996527;28;20081;-85
2022/05/10 07:05:16;;;;;;;10.70;5.93;;;17.80;99.90;;;;;;4995243;28;20133;-85
2022/05/10 07:07:42;;;;;;;12.18;6.43;;;17.90;99.90;;;;;;4995726;28;20049;-86
2022/05/10 07:10:10;;;;;;;8.68;5.95;;;18.00;99.90;;;;;;4995060;28;20043;-86
2022/05/10 07:12:38;;;;;;;10.18;5.70;;;17.90;99.90;;;;;;4996361;28;20402;-86
2022/05/10 07:15:05;;;;;;;8.32;5.30;;;18.00;99.90;;;;;;4994827;28;20046;-85
2022/05/10 07:17:31;;;;;;;10.25;5.68;;;18.10;99.90;;;;;;4995032;28;20104;-86
2022/05/10 07:19:57;;;;;;;14.57;5.78;;;18.10;99.90;;;;;;4995232;28;20050;-85
2022/05/10 07:22:22;;;;;;;11.45;5.40;;;18.20;99.90;;;;;;4978447;28;20486;-85
2022/05/10 07:24:48;;;;;;;11.65;5.75;;;18.30;99.90;;;;;;4978464;28;20046;-86
2022/05/10 07:27:14;;;;;;;16.65;5.00;;;18.30;99.90;;;;;;4994624;28;20132;-85
2022/05/10 07:29:39;;;;;;;10.43;5.30;;;18.40;99.90;;;;;;4994559;28;20077;-85
2022/05/10 07:32:08;;;;;;;8.30;5.10;;;18.40;99.90;;;;;;4994647;28;20056;-85
2022/05/10 07:34:33;;;;;;;8.88;4.82;;;18.40;99.90;;;;;;4978549;28;20046;-86
2022/05/10 07:36:59;;;;;;;8.93;4.85;;;18.50;99.90;;;;;;4994470;28;20569;-85
2022/05/10 07:39:26;;;;;;;7.97;4.53;;;18.60;99.90;;;;;;4994306;28;20133;-85
2022/05/10 07:41:53;;;;;;;11.63;4.45;;;18.70;99.90;;;;;;4994531;28;20125;-86
2022/05/10 07:44:20;;;;;;;13.75;5.15;;;18.80;99.90;;;;;;4995230;28;20054;-85
2022/05/10 07:46:45;;;;;;;8.77;4.38;;;18.90;99.90;;;;;;4994273;28;20053;-86
2022/05/10 07:49:11;;;;;;;14.20;4.60;;;18.90;99.90;;;;;;4994203;28;20054;-86
2022/05/10 07:51:37;;;;;;;9.60;4.55;;;19.10;99.90;;;;;;4978325;28;20390;-85
2022/05/10 07:54:02;;;;;;;8.82;4.68;;;19.10;99.90;;;;;;4994373;28;20133;-86
2022/05/10 07:56:28;;;;;;;9.20;4.90;;;19.00;99.90;;;;;;4993901;28;20047;-85
2022/05/10 07:58:55;;;;;;;11.98;5.28;;;19.00;99.90;;;;;;4996517;28;20073;-86
2022/05/10 08:01:21;;;;;;;9.52;4.60;;;19.10;99.90;;;;;;4997239;28;20089;-86
2022/05/10 08:03:47;;;;;;;11.27;4.90;;;19.20;99.90;;;;;;4981088;28;20127;-86
2022/05/10 08:06:13;;;;;;;9.57;4.63;;;19.20;99.90;;;;;;4997154;28;20140;-86
2022/05/10 08:08:39;;;;;;;8.25;4.90;;;19.30;99.90;;;;;;4980657;28;20038;-85
2022/05/10 08:11:06;;;;;;;9.05;4.70;;;19.50;99.90;;;;;;4980842;28;20052;-85
2022/05/10 08:13:33;;;;;;;8.30;4.85;;;19.60;99.90;;;;;;4997158;28;20042;-86
2022/05/10 08:16:00;;;;;;;12.60;4.93;;;19.70;99.90;;;;;;4996880;28;20532;-85
2022/05/10 08:18:26;;;;;;;11.20;4.82;;;19.80;99.90;;;;;;4996848;28;20042;-86
2022/05/10 08:20:54;;;;;;;9.80;4.70;;;19.80;99.90;;;;;;4997077;28;20100;-87
2022/05/10 08:23:23;;;;;;;9.43;4.80;;;19.90;99.90;;;;;;4996944;28;20077;-86
2022/05/10 08:25:55;;;;;;;13.18;4.97;;;20.00;99.90;;;;;;4996720;28;20042;-86
2022/05/10 08:28:26;;;;;;;11.18;4.70;;;20.10;99.90;;;;;;4980636;28;20128;-85
2022/05/10 08:30:52;;;;;;;9.13;4.75;;;20.20;99.90;;;;;;4996585;28;20076;-86
2022/05/10 08:33:20;;;;;;;11.35;4.45;;;20.30;99.90;;;;;;4996807;28;20042;-86
2022/05/10 08:35:48;;;;;;;15.32;4.53;;;20.30;99.90;;;;;;4996719;28;20054;-86
2022/05/10 08:38:13;;;;;;;11.35;4.72;;;20.30;99.90;;;;;;4996670;28;20053;-87
2022/05/10 08:40:45;;;;;;;7.90;4.30;;;20.50;99.90;;;;;;4996746;28;20054;-86
2022/05/10 08:43:26;;;;;;;10.65;4.50;;;20.60;99.90;;;;;;4996572;28;20046;-87
2022/05/10 08:45:53;;;;;;;8.18;4.32;;;20.70;99.90;;;;;;4982164;28;20532;-86
2022/05/10 08:48:19;;;;;;;8.32;4.53;;;20.70;99.90;;;;;;5010483;28;20050;-87
2022/05/10 08:50:48;;;;;;;9.35;4.13;;;20.80;99.90;;;;;;4994206;28;20088;-86
2022/05/10 08:53:17;;;;;;;7.15;4.35;;;20.80;99.90;;;;;;4998565;28;20421;-86
2022/05/10 08:55:58;;;;;;;12.15;4.30;;;20.80;99.90;;;;;;4996477;28;20044;-86
2022/05/10 08:58:44;;;;;;;10.32;5.13;;;21.00;99.90;;;;;;4996308;28;20086;-86
2022/05/10 09:01:17;;;;;;;8.23;4.55;;;21.10;99.90;;;;;;4996446;28;20053;-86
2022/05/10 09:04:13;;;;;;;10.70;4.95;;;21.20;99.90;;;;;;4996369;28;20544;-86
2022/05/10 09:06:53;;;;;;;8.90;5.10;;;21.30;99.90;;;;;;4920269;29;20066;-86
2022/05/10 09:09:28;;;;;;;9.60;5.38;;;21.40;99.90;;;;;;4917018;29;20184;-86
2022/05/10 09:12:17;;;;;;;10.85;5.15;;;21.60;99.90;;;;;;4920518;29;20098;-86
2022/05/10 09:15:01;;;;;;;7.80;5.00;;;21.70;99.90;;;;;;4919505;29;20106;-86
2022/05/10 09:17:30;;;;;;;10.13;4.85;;;21.90;99.90;;;;;;4903241;29;20062;-86
2022/05/10 09:19:56;;;;;;;11.93;5.75;;;22.00;99.90;;;;;;4920033;29;20075;-86
2022/05/10 09:22:22;;;;;;;9.90;5.28;;;22.00;99.90;;;;;;4906458;29;20143;-87
2022/05/10 09:24:53;;;;;;;10.55;5.50;;;22.00;99.90;;;;;;4906495;29;20138;-85
2022/05/10 09:27:24;;;;;;;10.43;5.63;;;21.80;99.90;;;;;;4922744;29;20492;-85
2022/05/10 09:29:52;;;;;;;12.63;5.53;;;21.70;99.90;;;;;;4922823;29;20432;-87
2022/05/10 09:35:28;;;;;;;15.60;6.32;;;21.40;99.90;;;;;;4922049;29;20079;-87
2022/05/10 09:38:01;;;;;;;7.93;5.32;;;21.40;99.90;;;;;;4906306;29;20203;-85
2022/05/10 09:40:46;;;;;;;9.88;6.13;;;21.50;99.90;;;;;;4906285;29;20054;-86
2022/05/10 09:43:15;;;;;;;10.75;6.35;;;21.50;99.90;;;;;;4931260;28;20466;-86
2022/05/10 09:45:41;;;;;;;13.82;6.60;;;21.70;99.90;;;;;;4999735;28;20057;-87
2022/05/10 09:48:18;;;;;;;9.70;6.30;;;21.80;99.90;;;;;;4983393;28;20053;-86
2022/05/10 09:50:47;;;;;;;12.00;6.72;;;21.80;99.90;;;;;;4989131;28;20042;-86
2022/05/10 09:53:18;;;;;;;11.30;6.30;;;21.90;99.90;;;;;;5015957;28;20058;-86
2022/05/10 09:55:58;;;;;;;10.32;5.65;;;22.00;99.90;;;;;;5009830;28;20045;-85
2022/05/10 09:58:55;;;;;;;11.93;5.95;;;22.40;99.90;;;;;;5000052;28;20432;-85
2022/05/10 10:01:45;;;;;;;17.08;6.43;;;22.70;99.90;;;;;;4922150;29;20520;-86
2022/05/10 10:04:32;;;;;;;9.60;5.57;;;23.10;99.90;;;;;;4906006;29;20114;-86
2022/05/10 10:07:09;;;;;;;12.48;5.78;;;23.40;99.90;;;;;;4922018;29;20091;-86
2022/05/10 10:09:40;;;;;;;10.77;5.40;;;23.60;99.90;;;;;;4921502;29;20055;-86
2022/05/10 10:12:35;;;;;;;7.28;4.63;;;23.60;99.90;;;;;;4905569;29;20062;-85
2022/05/10 10:15:17;;;;;;;7.83;4.83;;;23.50;99.90;;;;;;4921492;29;20079;-86
2022/05/10 10:17:51;;;;;;;8.15;4.95;;;23.30;99.90;;;;;;4921645;29;20532;-86
2022/05/10 10:20:35;;;;;;;8.43;4.80;;;23.10;99.90;;;;;;4921320;29;20044;-87
2022/05/10 10:23:07;;;;;;;7.32;4.22;;;23.10;99.90;;;;;;4921209;29;20378;-87
2022/05/10 10:25:44;;;;;;;5.57;4.32;;;23.00;99.90;;;;;;4920976;29;20074;-88
2022/05/10 10:28:12;;;;;;;7.18;4.10;;;22.80;99.90;;;;;;4921052;29;20055;-86
2022/05/10 10:30:49;;;;;;;8.02;3.88;;;22.60;99.90;;;;;;4920216;29;20514;-85
2022/05/10 10:33:27;;;;;;;7.82;4.35;;;22.40;99.90;;;;;;4920649;29;20059;-87
2022/05/10 10:36:13;;;;;;;8.65;4.60;;;22.10;99.90;;;;;;4920943;29;20048;-86
2022/05/10 10:38:59;;;;;;;11.30;4.65;;;22.10;99.90;;;;;;4953308;28;20054;-85
2022/05/10 10:41:49;;;;;;;8.35;5.13;;;22.00;99.90;;;;;;4982611;28;20038;-86
2022/05/10 10:44:18;;;;;;;8.40;4.63;;;22.00;99.90;;;;;;4998793;28;20054;-85
2022/05/10 10:46:56;;;;;;;7.57;4.78;;;21.90;99.90;;;;;;4999036;28;20474;-86
2022/05/10 10:49:35;;;;;;;11.73;5.78;;;21.80;99.90;;;;;;4982309;28;20046;-86
2022/05/10 10:52:01;;;;;;;9.95;4.95;;;21.80;99.90;;;;;;4998583;28;20096;-85
2022/05/10 10:54:29;;;;;;;10.73;5.68;;;21.80;99.90;;;;;;4998796;28;20042;-86
2022/05/10 10:57:42;;;;;;;10.32;5.93;;;21.70;99.90;;;;;;4998489;28;20049;-86
2022/05/10 11:00:15;;;;;;;9.30;5.82;;;21.70;99.90;;;;;;4920172;29;20605;-86
2022/05/10 11:02:43;;;;;;;8.65;5.65;;;21.70;99.90;;;;;;4920559;29;20056;-85
2022/05/10 11:05:33;;;;;;;12.10;6.55;;;21.90;99.90;;;;;;4920833;29;20411;-86
2022/05/10 11:08:29;;;;;;;10.10;6.20;;;22.00;99.90;;;;;;4904913;29;20048;-87
2022/05/10 11:11:06;;;;;;;9.25;6.55;;;22.20;99.90;;;;;;4920352;29;20052;-85
2022/05/10 11:13:53;;;;;;;10.85;6.72;;;22.30;99.90;;;;;;4920325;29;20055;-85
2022/05/10 11:16:43;;;;;;;14.02;7.32;;;22.20;99.90;;;;;;4920239;29;20055;-86
2022/05/10 11:19:33;;;;;;;10.90;7.30;;;22.20;99.90;;;;;;4904653;29;20051;-85
2022/05/10 11:22:19;;;;;;;11.20;6.60;;;22.20;99.90;;;;;;4935852;29;20087;-86
2022/05/10 11:25:10;;;;;;;11.52;6.30;;;22.30;99.90;;;;;;4936023;29;20048;-85
2022/05/10 11:28:00;;;;;;;9.68;5.28;;;22.40;99.90;;;;;;4936270;28;20078;-86
2022/05/10 11:30:45;;;;;;;9.73;4.93;;;22.40;99.90;;;;;;4954190;28;20093;-86
2022/05/10 11:33:32;;;;;;;11.98;4.70;;;22.60;99.90;;;;;;4998091;28;20388;-85
2022/05/10 11:36:22;;;;;;;9.13;4.35;;;22.70;99.90;;;;;;5015853;28;20549;-86
2022/05/10 11:39:06;;;;;;;7.80;4.40;;;22.60;99.90;;;;;;4981701;28;20454;-86
2022/05/10 11:42:01;;;;;;;8.82;4.07;;;22.60;99.90;;;;;;4997605;28;20112;-86
2022/05/10 11:44:35;;;;;;;6.43;3.97;;;22.40;99.90;;;;;;4997672;28;20042;-85
2022/05/10 11:47:25;;;;;;;7.50;4.05;;;22.40;99.90;;;;;;4997490;28;20280;-85
2022/05/10 11:50:09;;;;;;;8.02;3.65;;;22.40;99.90;;;;;;4981082;28;20049;-85
2022/05/10 11:53:12;;;;;;;7.63;3.90;;;22.40;99.90;;;;;;4998158;28;20054;-85
2022/05/10 11:55:55;;;;;;;6.95;3.55;;;22.30;99.90;;;;;;4997246;28;20092;-85
2022/05/10 11:58:23;;;;;;;10.02;4.45;;;22.20;99.90;;;;;;4997653;28;20433;-85
2022/05/10 12:01:00;;;;;;;6.57;3.50;;;22.20;99.90;;;;;;4993610;28;20053;-85
2022/05/10 12:03:43;;;;;;;7.75;3.40;;;22.20;99.90;;;;;;4993741;28;20056;-85
2022/05/10 12:06:23;;;;;;;9.82;3.22;;;22.30;99.90;;;;;;4993814;28;20051;-84
2022/05/10 12:08:52;;;;;;;11.02;2.92;;;22.40;99.90;;;;;;4993820;28;20489;-84
2022/05/10 12:11:32;;;;;;;13.77;3.65;;;22.50;99.90;;;;;;4993822;28;20050;-85
2022/05/10 12:22:42;;;;;;;8.25;3.63;;;22.60;99.90;;;;;;4993948;28;20457;-84
2022/05/10 12:25:08;;;;;;;12.02;3.80;;;22.50;99.90;;;;;;4993895;28;20529;-85
2022/05/10 12:27:34;;;;;;;26.95;5.75;;;22.50;99.90;;;;;;4978030;28;20108;-86
2022/05/10 12:30:05;;;;;;;16.33;4.47;;;22.60;99.90;;;;;;4993798;28;20069;-85
2022/05/10 12:32:34;;;;;;;8.02;2.97;;;22.60;99.90;;;;;;4977748;28;20046;-86
2022/05/10 12:35:02;;;;;;;7.45;3.55;;;22.50;99.90;;;;;;4993544;28;20425;-86
2022/05/10 12:37:28;;;;;;;7.78;3.05;;;22.40;99.90;;;;;;4993858;28;20042;-85
2022/05/10 12:40:09;;;;;;;5.68;2.58;;;22.40;99.90;;;;;;4994704;28;20108;-85
2022/05/10 12:43:05;;;;;;;5.95;2.38;;;22.20;99.90;;;;;;4993717;28;20406;-85
2022/05/10 12:46:02;;;;;;;7.50;2.40;;;22.00;99.90;;;;;;4993517;28;20054;-86
2022/05/10 12:48:58;;;;;;;32.72;4.95;;;21.80;99.90;;;;;;4994596;28;20046;-85
2022/05/10 12:51:34;;;;;;;6.80;2.22;;;21.60;99.90;;;;;;4993206;28;20042;-85
2022/05/10 12:54:01;;;;;;;8.63;2.25;;;21.40;99.90;;;;;;4976645;28;20051;-85
2022/05/10 12:56:42;;;;;;;5.22;1.85;;;21.20;99.90;;;;;;4976779;28;20053;-85
2022/05/10 12:59:27;;;;;;;38.25;5.43;;;21.20;99.90;;;;;;4995447;28;20049;-85
2022/05/10 13:01:56;;;;;;;3.35;1.30;;;21.00;99.70;;;;;;4996518;28;20060;-85
2022/05/10 13:04:29;;;;;;;5.18;1.90;;;20.90;99.90;;;;;;4996270;28;20049;-85
2022/05/10 13:07:13;;;;;;;4.05;1.15;;;20.80;98.90;;;;;;4996331;28;20096;-85
2022/05/10 13:09:54;;;;;;;3.20;1.00;;;20.70;97.90;;;;;;4996513;28;20229;-86
2022/05/10 13:12:34;;;;;;;4.80;1.05;;;20.70;97.70;;;;;;4980380;28;20440;-84
2022/05/10 13:15:13;;;;;;;3.83;0.90;;;20.80;98.50;;;;;;4980169;28;20113;-85
2022/05/10 13:17:44;;;;;;;10.30;2.10;;;20.70;97.10;;;;;;4996250;28;20052;-85
2022/05/10 13:20:12;;;;;;;4.95;1.15;;;20.80;96.70;;;;;;4980336;28;20064;-85
2022/05/10 13:22:46;;;;;;;3.90;0.90;;;20.70;96.50;;;;;;4980039;28;20050;-85
2022/05/10 13:25:12;;;;;;;3.40;0.82;;;20.70;96.40;;;;;;4996292;28;20133;-85